EJU36HA LFRS-LEMH
Flight info
| Callsign | EJU36HA |
|---|---|
| Flight time | 1h 24m |
| Altitude | 33000 |
| Route | N0438F330 LUGEN UM616 TUPAR DCT CNA DCT SECHE DCT AGN DCT TOU DCT LOMRA DCT ROCAN/N0439F370 DCT GEANT DCT GIR DCT SALON/N0442F390 DCT SULID DCT DIPES N727 SARGO |
| Aircraft | A320/M-SDE2E3FGHIJ1RWXYZ/LB1 |
Departure
| Time | 2026-04-29 19:23 |
|---|---|
| Airport | Nantes Atlantique Airport (LFRS) |
Arrival
| Time | 2026-04-29 20:47 |
|---|---|
| Airport | Menorca Airport (LEMH) |
| Time | Latitude | Longitude | Altitude | Speed | Heading |
|---|---|---|---|---|---|
| 2026-04-29 18:55 | 47.15647 | -1.60157 | 90 ft | 0 kts | 58° |
| 2026-04-29 19:13 | 47.15633 | -1.60190 | 90 ft | 4 kts | 58° |
| 2026-04-29 19:13 | 47.15619 | -1.60224 | 90 ft | 4 kts | 57° |
| 2026-04-29 19:13 | 47.15608 | -1.60249 | 90 ft | 4 kts | 43° |
| 2026-04-29 19:13 | 47.15586 | -1.60269 | 90 ft | 4 kts | 21° |
| 2026-04-29 19:14 | 47.15565 | -1.60281 | 90 ft | 4 kts | 24° |
| 2026-04-29 19:14 | 47.15560 | -1.60284 | 90 ft | 0 kts | 25° |
| 2026-04-29 19:18 | 47.15569 | -1.60278 | 90 ft | 3 kts | 25° |
| 2026-04-29 19:18 | 47.15582 | -1.60272 | 90 ft | 5 kts | 14° |
| 2026-04-29 19:18 | 47.15641 | -1.60321 | 90 ft | 8 kts | 316° |
| 2026-04-29 19:18 | 47.15679 | -1.60369 | 90 ft | 7 kts | 319° |
| 2026-04-29 19:19 | 47.15711 | -1.60409 | 91 ft | 6 kts | 323° |
| 2026-04-29 19:19 | 47.15740 | -1.60438 | 92 ft | 5 kts | 326° |
| 2026-04-29 19:19 | 47.15767 | -1.60449 | 89 ft | 4 kts | 356° |
| 2026-04-29 19:19 | 47.15807 | -1.60433 | 89 ft | 7 kts | 27° |
| 2026-04-29 19:20 | 47.15848 | -1.60400 | 89 ft | 6 kts | 27° |
| 2026-04-29 19:20 | 47.15883 | -1.60374 | 89 ft | 5 kts | 27° |
| 2026-04-29 19:20 | 47.15910 | -1.60353 | 89 ft | 4 kts | 27° |
| 2026-04-29 19:20 | 47.15931 | -1.60338 | 89 ft | 3 kts | 25° |
| 2026-04-29 19:21 | 47.15946 | -1.60338 | 89 ft | 2 kts | 349° |
| 2026-04-29 19:21 | 47.15960 | -1.60357 | 89 ft | 3 kts | 307° |
| 2026-04-29 19:21 | 47.15970 | -1.60383 | 89 ft | 3 kts | 298° |
| 2026-04-29 19:21 | 47.15992 | -1.60444 | 87 ft | 12 kts | 298° |
| 2026-04-29 19:22 | 47.16016 | -1.60514 | 83 ft | 6 kts | 297° |
| 2026-04-29 19:22 | 47.16003 | -1.60554 | 82 ft | 4 kts | 198° |
| 2026-04-29 19:22 | 47.15970 | -1.60575 | 83 ft | 13 kts | 206° |
| 2026-04-29 19:22 | 47.15668 | -1.60804 | 85 ft | 88 kts | 207° |
| 2026-04-29 19:23 | 47.14930 | -1.61364 | 89 ft | 149 kts | 207° |
| 2026-04-29 19:23 | 47.13928 | -1.62105 | 539 ft | 164 kts | 202° |
| 2026-04-29 19:23 | 47.12843 | -1.62261 | 1236 ft | 165 kts | 159° |
| 2026-04-29 19:23 | 47.11856 | -1.61268 | 1611 ft | 183 kts | 131° |
| 2026-04-29 19:24 | 47.10983 | -1.59736 | 1893 ft | 209 kts | 129° |
| 2026-04-29 19:24 | 47.09925 | -1.58093 | 2317 ft | 234 kts | 131° |
| 2026-04-29 19:24 | 47.08733 | -1.56322 | 3018 ft | 249 kts | 132° |
| 2026-04-29 19:24 | 47.07511 | -1.54530 | 4110 ft | 248 kts | 132° |
| 2026-04-29 19:25 | 47.06287 | -1.52737 | 5145 ft | 250 kts | 133° |
| 2026-04-29 19:25 | 47.05058 | -1.50913 | 6126 ft | 253 kts | 134° |
| 2026-04-29 19:25 | 47.03826 | -1.49064 | 7062 ft | 255 kts | 134° |
| 2026-04-29 19:25 | 47.02595 | -1.47215 | 7925 ft | 259 kts | 134° |
| 2026-04-29 19:26 | 47.01325 | -1.45300 | 8770 ft | 264 kts | 135° |
| 2026-04-29 19:26 | 47.00034 | -1.43357 | 9597 ft | 268 kts | 135° |
| 2026-04-29 19:26 | 46.98710 | -1.41366 | 10244 ft | 282 kts | 135° |
| 2026-04-29 19:26 | 46.97282 | -1.39219 | 10536 ft | 306 kts | 135° |
| 2026-04-29 19:27 | 46.95745 | -1.36913 | 10906 ft | 325 kts | 135° |
| 2026-04-29 19:27 | 46.94148 | -1.34515 | 11577 ft | 332 kts | 135° |
| 2026-04-29 19:27 | 46.92547 | -1.32105 | 12287 ft | 338 kts | 135° |
| 2026-04-29 19:27 | 46.90899 | -1.29623 | 13015 ft | 341 kts | 136° |
| 2026-04-29 19:28 | 46.89249 | -1.27137 | 13688 ft | 342 kts | 136° |
| 2026-04-29 19:28 | 46.87585 | -1.24649 | 14284 ft | 344 kts | 136° |
| 2026-04-29 19:28 | 46.85887 | -1.22132 | 14935 ft | 348 kts | 136° |
| 2026-04-29 19:28 | 46.84183 | -1.19597 | 15571 ft | 353 kts | 136° |
| 2026-04-29 19:29 | 46.82423 | -1.17081 | 16233 ft | 356 kts | 137° |
| 2026-04-29 19:29 | 46.80590 | -1.14632 | 16900 ft | 358 kts | 139° |
| 2026-04-29 19:29 | 46.78737 | -1.12254 | 17541 ft | 361 kts | 140° |
| 2026-04-29 19:29 | 46.76832 | -1.09842 | 18160 ft | 364 kts | 140° |
| 2026-04-29 19:30 | 46.74916 | -1.07415 | 18769 ft | 367 kts | 140° |
| 2026-04-29 19:30 | 46.72986 | -1.04959 | 19321 ft | 371 kts | 140° |
| 2026-04-29 19:30 | 46.71039 | -1.02471 | 19881 ft | 374 kts | 140° |
| 2026-04-29 19:30 | 46.69077 | -0.99954 | 20398 ft | 377 kts | 140° |
| 2026-04-29 19:31 | 46.67100 | -0.97409 | 20899 ft | 381 kts | 139° |
| 2026-04-29 19:31 | 46.65106 | -0.94838 | 21394 ft | 385 kts | 139° |
| 2026-04-29 19:31 | 46.63122 | -0.92278 | 21871 ft | 388 kts | 140° |
| 2026-04-29 19:31 | 46.61094 | -0.89665 | 22340 ft | 391 kts | 140° |
| 2026-04-29 19:32 | 46.59046 | -0.87033 | 22790 ft | 395 kts | 140° |
| 2026-04-29 19:32 | 46.56979 | -0.84378 | 23223 ft | 398 kts | 140° |
| 2026-04-29 19:32 | 46.54898 | -0.81698 | 23662 ft | 401 kts | 140° |
| 2026-04-29 19:32 | 46.52800 | -0.78997 | 24092 ft | 404 kts | 140° |
| 2026-04-29 19:33 | 46.50687 | -0.76276 | 24522 ft | 408 kts | 140° |
| 2026-04-29 19:33 | 46.48592 | -0.73576 | 24963 ft | 409 kts | 140° |
| 2026-04-29 19:33 | 46.46460 | -0.70833 | 25397 ft | 411 kts | 140° |
| 2026-04-29 19:33 | 46.44269 | -0.68172 | 25803 ft | 411 kts | 146° |
| 2026-04-29 19:34 | 46.41823 | -0.66037 | 26220 ft | 411 kts | 155° |
| 2026-04-29 19:34 | 46.39160 | -0.64531 | 26627 ft | 411 kts | 163° |
| 2026-04-29 19:34 | 46.36428 | -0.63277 | 27037 ft | 412 kts | 163° |
| 2026-04-29 19:34 | 46.33691 | -0.62017 | 27441 ft | 414 kts | 163° |
| 2026-04-29 19:35 | 46.30943 | -0.60749 | 27829 ft | 415 kts | 163° |
| 2026-04-29 19:35 | 46.28186 | -0.59480 | 28213 ft | 416 kts | 163° |
| 2026-04-29 19:35 | 46.25462 | -0.58226 | 28578 ft | 417 kts | 163° |
| 2026-04-29 19:35 | 46.22698 | -0.56955 | 28931 ft | 418 kts | 163° |
| 2026-04-29 19:36 | 46.19924 | -0.55681 | 29256 ft | 419 kts | 163° |
| 2026-04-29 19:36 | 46.17147 | -0.54406 | 29565 ft | 420 kts | 163° |
| 2026-04-29 19:36 | 46.14361 | -0.53125 | 29898 ft | 421 kts | 163° |
| 2026-04-29 19:36 | 46.11568 | -0.51844 | 30205 ft | 422 kts | 163° |
| 2026-04-29 19:37 | 46.08762 | -0.50565 | 30524 ft | 423 kts | 163° |
| 2026-04-29 19:37 | 46.06908 | -0.49721 | 30810 ft | 421 kts | 163° |
| 2026-04-29 19:37 | 46.03216 | -0.48041 | 31350 ft | 419 kts | 164° |
| 2026-04-29 19:37 | 46.00441 | -0.46780 | 31750 ft | 418 kts | 164° |
| 2026-04-29 19:38 | 45.97677 | -0.45527 | 32156 ft | 416 kts | 164° |
| 2026-04-29 19:38 | 45.94929 | -0.44277 | 32599 ft | 413 kts | 164° |
| 2026-04-29 19:38 | 45.92199 | -0.43030 | 33023 ft | 410 kts | 164° |
| 2026-04-29 19:38 | 45.89486 | -0.41790 | 33406 ft | 408 kts | 164° |
| 2026-04-29 19:39 | 45.86781 | -0.40560 | 33761 ft | 407 kts | 164° |
| 2026-04-29 19:39 | 45.84083 | -0.39338 | 34129 ft | 406 kts | 164° |
| 2026-04-29 19:39 | 45.81427 | -0.38139 | 34477 ft | 405 kts | 164° |
| 2026-04-29 19:39 | 45.78734 | -0.36927 | 34762 ft | 406 kts | 165° |
| 2026-04-29 19:40 | 45.76038 | -0.35711 | 35027 ft | 407 kts | 165° |
| 2026-04-29 19:40 | 45.73337 | -0.34492 | 35258 ft | 408 kts | 164° |
| 2026-04-29 19:40 | 45.70628 | -0.33273 | 35493 ft | 409 kts | 165° |
| 2026-04-29 19:40 | 45.67912 | -0.32057 | 35731 ft | 409 kts | 165° |
| 2026-04-29 19:41 | 45.65228 | -0.30677 | 35946 ft | 412 kts | 158° |
| 2026-04-29 19:41 | 45.62675 | -0.28917 | 36154 ft | 413 kts | 157° |
| 2026-04-29 19:41 | 45.60086 | -0.27118 | 36356 ft | 414 kts | 157° |
| 2026-04-29 19:41 | 45.57490 | -0.25318 | 36535 ft | 415 kts | 157° |
| 2026-04-29 19:42 | 45.54886 | -0.23516 | 36718 ft | 416 kts | 157° |
| 2026-04-29 19:42 | 45.53160 | -0.22322 | 36854 ft | 416 kts | 157° |
| 2026-04-29 19:42 | 45.49674 | -0.19915 | 36945 ft | 415 kts | 157° |
| 2026-04-29 19:43 | 45.44531 | -0.16369 | 36943 ft | 411 kts | 157° |
| 2026-04-29 19:43 | 45.39391 | -0.12830 | 36943 ft | 410 kts | 157° |
| 2026-04-29 19:44 | 45.34250 | -0.09309 | 36942 ft | 410 kts | 157° |
| 2026-04-29 19:44 | 45.29109 | -0.05794 | 36943 ft | 410 kts | 157° |
| 2026-04-29 19:45 | 45.23963 | -0.02280 | 36947 ft | 411 kts | 157° |
| 2026-04-29 19:45 | 45.18848 | 0.01207 | 36952 ft | 411 kts | 157° |
| 2026-04-29 19:46 | 45.13676 | 0.04720 | 36912 ft | 414 kts | 157° |
| 2026-04-29 19:46 | 45.08474 | 0.08256 | 36911 ft | 416 kts | 157° |
| 2026-04-29 19:47 | 45.03267 | 0.11789 | 36913 ft | 418 kts | 157° |
| 2026-04-29 19:47 | 44.98010 | 0.15342 | 36930 ft | 420 kts | 157° |
| 2026-04-29 19:48 | 44.92736 | 0.18895 | 36931 ft | 420 kts | 157° |
| 2026-04-29 19:48 | 44.87458 | 0.22452 | 36931 ft | 421 kts | 157° |
| 2026-04-29 19:49 | 44.82170 | 0.26004 | 36936 ft | 421 kts | 157° |
| 2026-04-29 19:49 | 44.76910 | 0.29533 | 36943 ft | 422 kts | 157° |
| 2026-04-29 19:50 | 44.71610 | 0.33078 | 36949 ft | 422 kts | 157° |
| 2026-04-29 19:50 | 44.66306 | 0.36611 | 36952 ft | 422 kts | 157° |
| 2026-04-29 19:51 | 44.61040 | 0.40122 | 36953 ft | 421 kts | 157° |
| 2026-04-29 19:51 | 44.55748 | 0.43651 | 36953 ft | 421 kts | 157° |
| 2026-04-29 19:52 | 44.50452 | 0.47168 | 36950 ft | 421 kts | 157° |
| 2026-04-29 19:52 | 44.45155 | 0.50673 | 36950 ft | 421 kts | 157° |
| 2026-04-29 19:53 | 44.39888 | 0.54145 | 36951 ft | 421 kts | 158° |
| 2026-04-29 19:53 | 44.34577 | 0.57614 | 36953 ft | 422 kts | 158° |
| 2026-04-29 19:54 | 44.26611 | 0.62818 | 36957 ft | 422 kts | 158° |
| 2026-04-29 19:54 | 44.21303 | 0.66279 | 36960 ft | 421 kts | 158° |
| 2026-04-29 19:55 | 44.15992 | 0.69725 | 36957 ft | 421 kts | 158° |
| 2026-04-29 19:55 | 44.10714 | 0.73140 | 36957 ft | 421 kts | 158° |
| 2026-04-29 19:56 | 44.05398 | 0.76582 | 36958 ft | 421 kts | 158° |
| 2026-04-29 19:56 | 44.00078 | 0.80025 | 36960 ft | 422 kts | 158° |
| 2026-04-29 19:57 | 43.95652 | 0.82878 | 36958 ft | 423 kts | 158° |
| 2026-04-29 19:57 | 43.89691 | 0.87530 | 36958 ft | 428 kts | 143° |
| 2026-04-29 19:58 | 43.85756 | 0.93751 | 36955 ft | 434 kts | 126° |
| 2026-04-29 19:58 | 43.82460 | 1.00772 | 36952 ft | 435 kts | 126° |
| 2026-04-29 19:59 | 43.79134 | 1.07780 | 36957 ft | 436 kts | 126° |
| 2026-04-29 19:59 | 43.75818 | 1.14751 | 36961 ft | 437 kts | 126° |
| 2026-04-29 20:00 | 43.72471 | 1.21773 | 36967 ft | 438 kts | 126° |
| 2026-04-29 20:00 | 43.69120 | 1.28799 | 36968 ft | 438 kts | 126° |
| 2026-04-29 20:01 | 43.65463 | 1.35482 | 36968 ft | 436 kts | 131° |
| 2026-04-29 20:01 | 43.61678 | 1.41965 | 36971 ft | 436 kts | 131° |
| 2026-04-29 20:02 | 43.57867 | 1.48484 | 36973 ft | 436 kts | 131° |
| 2026-04-29 20:02 | 43.54694 | 1.53900 | 36975 ft | 437 kts | 131° |
| 2026-04-29 20:03 | 43.50226 | 1.61511 | 36980 ft | 437 kts | 131° |
| 2026-04-29 20:03 | 43.46424 | 1.67972 | 36983 ft | 437 kts | 131° |
| 2026-04-29 20:04 | 43.42590 | 1.74472 | 36985 ft | 437 kts | 131° |
| 2026-04-29 20:04 | 43.38746 | 1.80954 | 36985 ft | 437 kts | 134° |
| 2026-04-29 20:05 | 43.34077 | 1.86125 | 36984 ft | 429 kts | 154° |
| 2026-04-29 20:05 | 43.28541 | 1.88760 | 36982 ft | 423 kts | 173° |
| 2026-04-29 20:06 | 43.22698 | 1.89438 | 36980 ft | 422 kts | 178° |
| 2026-04-29 20:06 | 43.16833 | 1.89992 | 36981 ft | 423 kts | 178° |
| 2026-04-29 20:07 | 43.10963 | 1.90543 | 36987 ft | 423 kts | 178° |
| 2026-04-29 20:07 | 43.05130 | 1.91095 | 36992 ft | 423 kts | 178° |
| 2026-04-29 20:08 | 43.00203 | 1.91559 | 36995 ft | 424 kts | 178° |
| 2026-04-29 20:08 | 42.93371 | 1.92210 | 36995 ft | 424 kts | 178° |
| 2026-04-29 20:09 | 42.87481 | 1.92765 | 37001 ft | 424 kts | 178° |
| 2026-04-29 20:09 | 42.81625 | 1.93320 | 36999 ft | 425 kts | 178° |
| 2026-04-29 20:10 | 42.75727 | 1.93881 | 37000 ft | 425 kts | 178° |
| 2026-04-29 20:10 | 42.69856 | 1.94820 | 36995 ft | 428 kts | 167° |
| 2026-04-29 20:11 | 42.64407 | 1.98131 | 36992 ft | 434 kts | 148° |
| 2026-04-29 20:11 | 42.59723 | 2.03271 | 36989 ft | 437 kts | 142° |
| 2026-04-29 20:12 | 42.55037 | 2.08542 | 36989 ft | 438 kts | 142° |
| 2026-04-29 20:12 | 42.50328 | 2.13802 | 36995 ft | 439 kts | 143° |
| 2026-04-29 20:13 | 42.46409 | 2.18180 | 36999 ft | 439 kts | 142° |
| 2026-04-29 20:13 | 42.40932 | 2.24309 | 37010 ft | 440 kts | 142° |
| 2026-04-29 20:14 | 42.36216 | 2.29591 | 37017 ft | 440 kts | 143° |
| 2026-04-29 20:14 | 42.31491 | 2.34859 | 37021 ft | 441 kts | 143° |
| 2026-04-29 20:15 | 42.26756 | 2.40115 | 37024 ft | 440 kts | 143° |
| 2026-04-29 20:15 | 42.22050 | 2.45323 | 37025 ft | 440 kts | 143° |
| 2026-04-29 20:16 | 42.17315 | 2.50557 | 37030 ft | 440 kts | 143° |
| 2026-04-29 20:16 | 42.12585 | 2.55800 | 37036 ft | 440 kts | 143° |
| 2026-04-29 20:17 | 42.07844 | 2.61020 | 37032 ft | 440 kts | 143° |
| 2026-04-29 20:17 | 42.03141 | 2.66196 | 37033 ft | 440 kts | 143° |
| 2026-04-29 20:18 | 41.98393 | 2.71404 | 37030 ft | 441 kts | 143° |
| 2026-04-29 20:18 | 41.93639 | 2.76612 | 37027 ft | 441 kts | 143° |
| 2026-04-29 20:19 | 41.88760 | 2.81600 | 37026 ft | 440 kts | 147° |
| 2026-04-29 20:19 | 41.83762 | 2.86260 | 37031 ft | 440 kts | 148° |
| 2026-04-29 20:20 | 41.78726 | 2.90938 | 37033 ft | 441 kts | 147° |
| 2026-04-29 20:20 | 41.73723 | 2.95691 | 37030 ft | 441 kts | 147° |
| 2026-04-29 20:21 | 41.68729 | 3.00460 | 37028 ft | 441 kts | 146° |
| 2026-04-29 20:21 | 41.63766 | 3.05177 | 37027 ft | 441 kts | 147° |
| 2026-04-29 20:22 | 41.58763 | 3.09919 | 37031 ft | 441 kts | 147° |
| 2026-04-29 20:22 | 41.53756 | 3.14661 | 37026 ft | 441 kts | 147° |
| 2026-04-29 20:23 | 41.48733 | 3.19379 | 36727 ft | 441 kts | 148° |
| 2026-04-29 20:23 | 41.46209 | 3.21593 | 36481 ft | 440 kts | 149° |
| 2026-04-29 20:23 | 41.43611 | 3.23737 | 36234 ft | 439 kts | 150° |
| 2026-04-29 20:24 | 41.40986 | 3.25832 | 35985 ft | 440 kts | 151° |
| 2026-04-29 20:24 | 41.38354 | 3.27917 | 35639 ft | 442 kts | 150° |
| 2026-04-29 20:24 | 41.35698 | 3.30031 | 34747 ft | 447 kts | 150° |
| 2026-04-29 20:24 | 41.33030 | 3.32181 | 33956 ft | 449 kts | 150° |
| 2026-04-29 20:25 | 41.30359 | 3.34357 | 33233 ft | 449 kts | 149° |
| 2026-04-29 20:25 | 41.27718 | 3.36529 | 32686 ft | 445 kts | 149° |
| 2026-04-29 20:25 | 41.25135 | 3.38657 | 32114 ft | 442 kts | 149° |
| 2026-04-29 20:25 | 41.22532 | 3.40796 | 31527 ft | 438 kts | 149° |
| 2026-04-29 20:26 | 41.19949 | 3.42909 | 30948 ft | 434 kts | 149° |
| 2026-04-29 20:26 | 41.17386 | 3.45000 | 30391 ft | 431 kts | 149° |
| 2026-04-29 20:26 | 41.14842 | 3.47073 | 29813 ft | 427 kts | 149° |
| 2026-04-29 20:26 | 41.12318 | 3.49122 | 29266 ft | 424 kts | 149° |
| 2026-04-29 20:27 | 41.09814 | 3.51152 | 28713 ft | 421 kts | 149° |
| 2026-04-29 20:27 | 41.08165 | 3.52487 | 28365 ft | 418 kts | 149° |
| 2026-04-29 20:27 | 41.04924 | 3.55116 | 27785 ft | 409 kts | 149° |
| 2026-04-29 20:27 | 41.02502 | 3.57081 | 27254 ft | 407 kts | 149° |
| 2026-04-29 20:28 | 41.00099 | 3.59024 | 26721 ft | 403 kts | 149° |
| 2026-04-29 20:28 | 40.97719 | 3.60943 | 26207 ft | 399 kts | 149° |
| 2026-04-29 20:28 | 40.95357 | 3.62848 | 25703 ft | 396 kts | 149° |
| 2026-04-29 20:28 | 40.93021 | 3.64737 | 25223 ft | 391 kts | 149° |
| 2026-04-29 20:29 | 40.90710 | 3.66603 | 24744 ft | 387 kts | 149° |
| 2026-04-29 20:29 | 40.88422 | 3.68443 | 24273 ft | 383 kts | 149° |
| 2026-04-29 20:29 | 40.86188 | 3.70241 | 23817 ft | 379 kts | 149° |
| 2026-04-29 20:29 | 40.83944 | 3.72048 | 23349 ft | 376 kts | 149° |
| 2026-04-29 20:30 | 40.81722 | 3.73837 | 22934 ft | 372 kts | 149° |
| 2026-04-29 20:30 | 40.79524 | 3.75605 | 22504 ft | 368 kts | 149° |
| 2026-04-29 20:30 | 40.77341 | 3.77356 | 22048 ft | 366 kts | 149° |
| 2026-04-29 20:30 | 40.75169 | 3.79095 | 21581 ft | 365 kts | 150° |
| 2026-04-29 20:31 | 40.73001 | 3.80828 | 21112 ft | 364 kts | 150° |
| 2026-04-29 20:31 | 40.70802 | 3.82414 | 20839 ft | 354 kts | 160° |
| 2026-04-29 20:31 | 40.68451 | 3.83165 | 20762 ft | 347 kts | 175° |
| 2026-04-29 20:31 | 40.66079 | 3.83513 | 20687 ft | 348 kts | 176° |
| 2026-04-29 20:32 | 40.63669 | 3.83851 | 20610 ft | 348 kts | 176° |
| 2026-04-29 20:32 | 40.61259 | 3.84182 | 20532 ft | 348 kts | 176° |
| 2026-04-29 20:32 | 40.58850 | 3.84510 | 20455 ft | 348 kts | 176° |
| 2026-04-29 20:32 | 40.57255 | 3.84725 | 20392 ft | 350 kts | 176° |
| 2026-04-29 20:33 | 40.53895 | 3.85172 | 20057 ft | 369 kts | 176° |
| 2026-04-29 20:33 | 40.51335 | 3.85514 | 19810 ft | 370 kts | 176° |
| 2026-04-29 20:33 | 40.48810 | 3.85854 | 19559 ft | 370 kts | 176° |
| 2026-04-29 20:33 | 40.46257 | 3.86202 | 19305 ft | 368 kts | 176° |
| 2026-04-29 20:34 | 40.43712 | 3.86551 | 19051 ft | 367 kts | 176° |
| 2026-04-29 20:34 | 40.41180 | 3.86895 | 18805 ft | 365 kts | 176° |
| 2026-04-29 20:34 | 40.38668 | 3.87236 | 18482 ft | 361 kts | 176° |
| 2026-04-29 20:34 | 40.36180 | 3.87575 | 17995 ft | 359 kts | 176° |
| 2026-04-29 20:35 | 40.33703 | 3.87914 | 17524 ft | 357 kts | 177° |
| 2026-04-29 20:35 | 40.31237 | 3.88250 | 17055 ft | 356 kts | 176° |
| 2026-04-29 20:35 | 40.28784 | 3.88583 | 16587 ft | 354 kts | 177° |
| 2026-04-29 20:35 | 40.26372 | 3.88904 | 16134 ft | 352 kts | 177° |
| 2026-04-29 20:36 | 40.23939 | 3.89229 | 15679 ft | 351 kts | 177° |
| 2026-04-29 20:36 | 40.21521 | 3.89556 | 15280 ft | 347 kts | 176° |
| 2026-04-29 20:36 | 40.19140 | 3.89879 | 14934 ft | 342 kts | 176° |
| 2026-04-29 20:36 | 40.16784 | 3.90194 | 14529 ft | 339 kts | 176° |
| 2026-04-29 20:37 | 40.14445 | 3.90506 | 14033 ft | 338 kts | 176° |
| 2026-04-29 20:37 | 40.12070 | 3.90824 | 13393 ft | 344 kts | 176° |
| 2026-04-29 20:37 | 40.09734 | 3.91139 | 12955 ft | 341 kts | 176° |
| 2026-04-29 20:37 | 40.07382 | 3.91457 | 12494 ft | 339 kts | 176° |
| 2026-04-29 20:38 | 40.05046 | 3.91772 | 12026 ft | 337 kts | 176° |
| 2026-04-29 20:38 | 40.02724 | 3.92082 | 11561 ft | 334 kts | 176° |
| 2026-04-29 20:38 | 40.00419 | 3.92389 | 11093 ft | 332 kts | 176° |
| 2026-04-29 20:38 | 39.98131 | 3.92691 | 10635 ft | 330 kts | 175° |
| 2026-04-29 20:39 | 39.95907 | 3.92988 | 10475 ft | 310 kts | 175° |
| 2026-04-29 20:39 | 39.93845 | 3.93256 | 10349 ft | 286 kts | 175° |
| 2026-04-29 20:39 | 39.91930 | 3.93533 | 10109 ft | 270 kts | 169° |
| 2026-04-29 20:39 | 39.90173 | 3.94217 | 9618 ft | 265 kts | 161° |
| 2026-04-29 20:40 | 39.88447 | 3.95030 | 9155 ft | 263 kts | 160° |
| 2026-04-29 20:40 | 39.86777 | 3.96000 | 8786 ft | 264 kts | 153° |
| 2026-04-29 20:40 | 39.85151 | 3.97100 | 8409 ft | 263 kts | 153° |
| 2026-04-29 20:40 | 39.83522 | 3.98213 | 7923 ft | 267 kts | 152° |
| 2026-04-29 20:41 | 39.81872 | 3.99342 | 7415 ft | 270 kts | 152° |
| 2026-04-29 20:41 | 39.80202 | 4.00482 | 6915 ft | 270 kts | 152° |
| 2026-04-29 20:41 | 39.78573 | 4.01593 | 6418 ft | 266 kts | 152° |
| 2026-04-29 20:41 | 39.77056 | 4.02887 | 5916 ft | 258 kts | 138° |
| 2026-04-29 20:42 | 39.75943 | 4.04655 | 5441 ft | 250 kts | 124° |
| 2026-04-29 20:42 | 39.75013 | 4.06521 | 4990 ft | 242 kts | 123° |
| 2026-04-29 20:42 | 39.74124 | 4.08347 | 4524 ft | 237 kts | 122° |
| 2026-04-29 20:42 | 39.73290 | 4.10174 | 4049 ft | 233 kts | 117° |
| 2026-04-29 20:43 | 39.72597 | 4.12068 | 3572 ft | 231 kts | 115° |
| 2026-04-29 20:43 | 39.71948 | 4.13935 | 3230 ft | 218 kts | 111° |
| 2026-04-29 20:43 | 39.71575 | 4.15729 | 3004 ft | 204 kts | 93° |
| 2026-04-29 20:43 | 39.71845 | 4.17469 | 2859 ft | 193 kts | 64° |
| 2026-04-29 20:44 | 39.72706 | 4.18763 | 2703 ft | 190 kts | 36° |
| 2026-04-29 20:44 | 39.73925 | 4.19342 | 2485 ft | 183 kts | 11° |
| 2026-04-29 20:44 | 39.75150 | 4.19590 | 2257 ft | 174 kts | 11° |
| 2026-04-29 20:44 | 39.76322 | 4.19828 | 2051 ft | 168 kts | 11° |
| 2026-04-29 20:45 | 39.77470 | 4.20062 | 1821 ft | 166 kts | 11° |
| 2026-04-29 20:45 | 39.78602 | 4.20294 | 1612 ft | 164 kts | 11° |
| 2026-04-29 20:45 | 39.79685 | 4.20514 | 1387 ft | 151 kts | 12° |
| 2026-04-29 20:45 | 39.80685 | 4.20722 | 1200 ft | 144 kts | 12° |
| 2026-04-29 20:46 | 39.81673 | 4.20920 | 1013 ft | 143 kts | 11° |
| 2026-04-29 20:46 | 39.82648 | 4.21118 | 826 ft | 141 kts | 12° |
| 2026-04-29 20:46 | 39.83617 | 4.21322 | 630 ft | 141 kts | 12° |
| 2026-04-29 20:46 | 39.84583 | 4.21522 | 447 ft | 141 kts | 11° |
| 2026-04-29 20:47 | 39.85546 | 4.21712 | 297 ft | 133 kts | 11° |
| 2026-04-29 20:47 | 39.86338 | 4.21882 | 303 ft | 92 kts | 8° |
| 2026-04-29 20:47 | 39.86820 | 4.21981 | 303 ft | 52 kts | 8° |
| 2026-04-29 20:47 | 39.87085 | 4.22034 | 304 ft | 25 kts | 9° |
| 2026-04-29 20:48 | 39.87216 | 4.22060 | 307 ft | 18 kts | 9° |
| 2026-04-29 20:48 | 39.87335 | 4.22087 | 310 ft | 15 kts | 15° |
| 2026-04-29 20:48 | 39.87392 | 4.22190 | 310 ft | 15 kts | 76° |
| 2026-04-29 20:48 | 39.87373 | 4.22310 | 312 ft | 14 kts | 137° |
| 2026-04-29 20:49 | 39.87273 | 4.22312 | 310 ft | 16 kts | 189° |
| 2026-04-29 20:49 | 39.87148 | 4.22286 | 306 ft | 20 kts | 189° |
| 2026-04-29 20:49 | 39.87000 | 4.22255 | 302 ft | 19 kts | 188° |
| 2026-04-29 20:49 | 39.86934 | 4.22262 | 300 ft | 9 kts | 138° |
| 2026-04-29 20:50 | 39.86918 | 4.22350 | 298 ft | 12 kts | 99° |
| 2026-04-29 20:50 | 39.86852 | 4.22397 | 295 ft | 13 kts | 188° |
| 2026-04-29 20:50 | 39.86757 | 4.22377 | 293 ft | 14 kts | 189° |
| 2026-04-29 20:50 | 39.86660 | 4.22356 | 290 ft | 15 kts | 189° |
| 2026-04-29 20:51 | 39.86551 | 4.22335 | 289 ft | 16 kts | 189° |
| 2026-04-29 20:51 | 39.86486 | 4.22323 | 288 ft | 6 kts | 177° |
| 2026-04-29 20:51 | 39.86470 | 4.22381 | 287 ft | 8 kts | 98° |
| 2026-04-29 20:51 | 39.86468 | 4.22400 | 286 ft | 0 kts | 98° |